Terminal Aerodrome Forecast
Issued by NWS Pocatello, ID

Home | Current Version | Previous Version | Text Only | Print | Product List | Glossary On
Versions: 1 2 3 4 5 6 7 8 9 10 11 12 13
000
FTUS45 KPIH 270108 AAA
TAFIDA
TAF AMD
KIDA 270108Z 2701/2724 03012G22KT P6SM BKN110
     FM270300 VRB06KT P6SM FEW110
     FM271800 24010G20KT P6SM FEW100=

USA.gov is the U.S. government's official web portal to all federal, state and local government web resources and services.